Upstream stations:
Downstream station:
SHEF ID: FLRK1 COTTONWOOD R NR FLORENCE, KS
STATION TYPE:
Regulating: Stage = 21.00, Flow = 9471
PRECIP STAGE STAGE(2) RIV-FLOW BAT-LOAD
in ft ft cfs volt
Ccp-Rev Ccp-Rev Ccp-Rev Ccp-Rev Ccp-Rev
(US/Central)
09/06 00:00 0.00 4.62 2.91 645 12.89
09/06 01:00 0.00 4.54 2.91 608 12.89
09/06 02:00 0.00 4.46 2.91 571 12.89
09/06 03:00 0.00 4.38 2.91 534 12.89
09/06 04:00 0.00 4.33 2.91 512 12.83
09/06 05:00 0.00 4.26 2.91 481 12.77
09/06 06:00 0.00 4.21 2.91 459 12.77
09/06 07:00 0.00 4.16 2.91 438 12.71
09/06 08:00 0.00 4.10 2.91 412 12.71
09/06 09:00 0.00 4.06 2.91 395 12.83
09/06 10:00 0.00 4.01 2.91 375 12.95
09/06 11:00 0.00 3.97 2.90 358 13.30
09/06 12:00 0.00 3.92 2.90 338 13.53
09/06 13:00 0.00 3.89 2.90 327 13.59
09/06 14:00 0.00 3.86 2.91 315 13.77
09/06 15:00 0.00 3.82 2.90 299 13.83
09/06 16:00 0.00 3.79 2.91 288 13.77
09/06 17:00 0.00 3.76 2.91 276 13.65
09/06 18:00 0.00 3.73 2.91 265 13.59
09/06 19:00 0.00 3.71 2.91 258 13.71
09/06 20:00 0.00 3.68 2.91 247 13.18
09/06 21:00 0.00 3.66 2.90 239 13.07
09/06 22:00 0.00 3.64 2.90 232 13.00
09/06 23:00 0.00 3.62 2.91 225 13.00